Time;durP1;ratioP1;P1;durP2;ratioP2;P2;SDS_P1;SDS_P2;PMS_P1;PMS_P2;Temp;Humidity;BMP_temperature;BMP_pressure;BME280_temperature;BME280_humidity;BME280_pressure;Samples;Min_cycle;Max_cycle;Signal;HPM_P1;HPM_P2
2022/09/27 00:00:21;;;;;;;6.00;2.08;;;10.50;99.90;;;;;;6181762;23;20442;-74
2022/09/27 00:02:48;;;;;;;4.03;1.02;;;10.50;99.90;;;;;;6181943;23;19997;-74
2022/09/27 00:05:14;;;;;;;4.07;1.52;;;10.50;99.90;;;;;;6181875;23;20378;-73
2022/09/27 00:07:39;;;;;;;11.02;1.52;;;10.50;99.90;;;;;;6181134;23;20009;-74
2022/09/27 00:10:05;;;;;;;4.88;1.27;;;10.40;99.90;;;;;;6182153;23;19997;-73
2022/09/27 00:12:31;;;;;;;4.65;0.93;;;10.40;99.90;;;;;;6181773;23;20001;-73
2022/09/27 00:14:56;;;;;;;7.80;1.25;;;10.40;99.90;;;;;;6181390;23;20080;-73
2022/09/27 00:17:22;;;;;;;6.38;0.85;;;10.30;99.90;;;;;;6181784;23;20001;-74
2022/09/27 00:19:48;;;;;;;3.38;0.90;;;10.30;99.90;;;;;;6182102;23;20430;-74
2022/09/27 00:22:13;;;;;;;2.78;0.73;;;10.30;99.90;;;;;;6181155;23;20013;-73
2022/09/27 00:24:39;;;;;;;6.55;1.00;;;10.40;99.90;;;;;;6180459;23;20001;-73
2022/09/27 00:27:04;;;;;;;4.47;0.82;;;10.30;99.90;;;;;;6180246;23;20013;-73
2022/09/27 00:29:30;;;;;;;4.05;0.50;;;10.30;99.90;;;;;;6181352;23;20074;-73
2022/09/27 00:31:55;;;;;;;4.63;1.33;;;11.20;99.90;;;;;;6181292;23;20072;-73
2022/09/27 00:34:24;;;;;;;4.07;0.95;;;10.30;99.90;;;;;;6181822;23;20049;-73
2022/09/27 00:36:51;;;;;;;3.03;0.77;;;10.30;99.90;;;;;;6179417;23;20080;-73
2022/09/27 00:39:17;;;;;;;4.55;0.73;;;;;;;;;;6181707;23;20001;-74
2022/09/27 00:41:43;;;;;;;4.38;0.90;;;10.20;99.90;;;;;;6179620;23;20009;-74
2022/09/27 00:44:23;;;;;;;3.90;0.60;;;10.30;99.90;;;;;;6181749;23;20413;-73
2022/09/27 00:46:58;;;;;;;5.13;0.80;;;10.30;99.90;;;;;;6181420;23;20032;-72
2022/09/27 00:49:29;;;;;;;4.47;0.90;;;10.30;99.90;;;;;;6181463;23;20076;-74
2022/09/27 00:52:01;;;;;;;5.68;0.80;;;10.30;99.90;;;;;;6180515;23;20346;-73
2022/09/27 00:54:31;;;;;;;3.63;0.98;;;10.20;99.90;;;;;;6181986;23;19997;-73
2022/09/27 00:56:58;;;;;;;3.25;0.50;;;10.20;99.90;;;;;;6181372;23;20013;-73
2022/09/27 00:59:28;;;;;;;3.13;0.50;;;10.30;99.90;;;;;;6181608;23;20440;-74
2022/09/27 01:01:54;;;;;;;4.47;0.70;;;10.20;99.90;;;;;;6181172;23;20009;-74
2022/09/27 01:04:29;;;;;;;3.25;0.90;;;10.20;99.90;;;;;;6180164;23;20077;-74
2022/09/27 01:06:55;;;;;;;2.88;0.63;;;10.20;99.90;;;;;;6180496;23;20004;-73
2022/09/27 01:09:22;;;;;;;3.50;0.55;;;10.10;99.90;;;;;;6181515;23;20064;-74
2022/09/27 01:11:56;;;;;;;4.20;0.85;;;10.10;99.90;;;;;;6179521;23;20025;-73
2022/09/27 01:14:46;;;;;;;4.38;1.50;;;10.10;99.90;;;;;;6180228;23;20008;-74
2022/09/27 01:17:29;;;;;;;5.43;0.82;;;10.00;99.90;;;;;;6183340;23;20008;-73
2022/09/27 01:20:21;;;;;;;4.47;0.65;;;10.00;99.90;;;;;;6182243;23;20016;-73
2022/09/27 01:23:19;;;;;;;3.20;0.50;;;9.90;99.90;;;;;;6183343;23;20434;-74
2022/09/27 01:26:06;;;;;;;4.30;0.80;;;10.00;99.90;;;;;;6182927;23;20372;-73
2022/09/27 01:28:54;;;;;;;12.48;1.42;;;10.00;99.90;;;;;;6183087;23;20025;-74
2022/09/27 01:31:33;;;;;;;8.93;0.80;;;9.90;99.90;;;;;;6183533;23;20001;-74
2022/09/27 01:34:13;;;;;;;6.25;0.52;;;9.90;99.90;;;;;;6182494;23;20427;-73
2022/09/27 01:36:53;;;;;;;3.07;0.57;;;9.80;99.90;;;;;;6183073;23;20005;-73
2022/09/27 01:39:32;;;;;;;5.03;0.60;;;9.80;99.90;;;;;;6183295;23;20005;-74
2022/09/27 01:42:18;;;;;;;4.25;0.77;;;9.80;99.90;;;;;;6182949;23;19997;-74
2022/09/27 01:44:49;;;;;;;11.05;0.90;;;9.80;99.90;;;;;;6182847;23;20005;-73
2022/09/27 01:47:21;;;;;;;7.72;1.40;;;9.80;99.90;;;;;;6183089;23;20089;-73
2022/09/27 01:50:05;;;;;;;6.55;1.42;;;9.80;99.90;;;;;;6182532;23;20001;-74
2022/09/27 01:52:51;;;;;;;5.00;1.45;;;9.70;99.90;;;;;;6183136;23;20048;-73
2022/09/27 01:55:20;;;;;;;3.13;0.80;;;9.70;99.90;;;;;;6183271;23;20033;-73
2022/09/27 01:57:54;;;;;;;2.38;1.02;;;9.70;99.90;;;;;;6182803;23;20072;-73
2022/09/27 02:00:20;;;;;;;2.15;1.05;;;9.60;99.90;;;;;;6183364;23;20001;-73
2022/09/27 02:02:54;;;;;;;2.53;0.80;;;9.60;99.90;;;;;;6182716;23;20001;-73
2022/09/27 02:05:24;;;;;;;2.17;0.50;;;9.60;99.90;;;;;;6183401;23;20032;-74
2022/09/27 02:07:59;;;;;;;5.57;1.40;;;9.60;99.90;;;;;;6182595;23;20001;-73
2022/09/27 02:10:30;;;;;;;10.43;0.70;;;9.60;99.90;;;;;;6183192;23;20005;-73
2022/09/27 02:13:03;;;;;;;3.28;0.52;;;9.60;99.90;;;;;;6181005;23;19997;-74
2022/09/27 02:15:40;;;;;;;2.55;0.57;;;9.60;99.90;;;;;;6183046;23;19997;-74
2022/09/27 02:18:17;;;;;;;5.53;0.97;;;9.50;99.90;;;;;;6182342;23;20066;-73
2022/09/27 02:20:54;;;;;;;3.67;0.53;;;9.50;99.90;;;;;;6182521;23;20131;-74
2022/09/27 02:23:47;;;;;;;4.40;0.40;;;9.40;99.90;;;;;;6182951;23;20005;-74
2022/09/27 02:26:23;;;;;;;5.20;0.77;;;9.40;99.90;;;;;;6180423;23;20002;-73
2022/09/27 02:29:04;;;;;;;2.53;0.80;;;9.40;99.90;;;;;;6182487;23;20017;-73
2022/09/27 02:31:30;;;;;;;2.67;0.63;;;;;;;;;;6182689;23;20449;-73
2022/09/27 02:34:22;;;;;;;6.43;0.50;;;9.30;99.90;;;;;;6180551;23;20013;-74
2022/09/27 02:36:47;;;;;;;5.17;0.60;;;9.40;99.90;;;;;;6182489;23;19997;-73
2022/09/27 02:39:15;;;;;;;6.07;1.03;;;9.30;99.90;;;;;;6182523;23;20020;-73
2022/09/27 02:41:40;;;;;;;4.43;0.50;;;9.40;99.90;;;;;;6182323;23;20004;-73
2022/09/27 02:44:09;;;;;;;2.07;0.60;;;9.20;99.90;;;;;;6179833;23;20012;-73
2022/09/27 02:46:45;;;;;;;2.83;0.57;;;9.20;99.90;;;;;;6179654;23;20016;-73
2022/09/27 02:49:27;;;;;;;5.82;0.68;;;9.20;99.90;;;;;;6180204;23;20033;-73
2022/09/27 02:52:20;;;;;;;3.30;0.70;;;9.20;99.90;;;;;;6179643;23;20390;-73
2022/09/27 02:55:07;;;;;;;4.70;0.90;;;9.20;99.90;;;;;;6179766;23;20080;-73
2022/09/27 02:58:07;;;;;;;3.20;0.60;;;9.20;99.90;;;;;;6180106;23;20009;-73
2022/09/27 03:00:50;;;;;;;3.33;0.57;;;9.10;99.90;;;;;;6116929;23;20056;-74
2022/09/27 03:03:41;;;;;;;2.10;0.50;;;9.10;99.90;;;;;;6182786;23;20407;-74
2022/09/27 03:06:14;;;;;;;4.13;0.70;;;9.10;99.90;;;;;;6182351;23;20430;-73
2022/09/27 03:08:40;;;;;;;6.60;1.03;;;9.00;99.90;;;;;;6182284;23;20012;-73
2022/09/27 03:11:06;;;;;;;9.83;0.67;;;9.00;99.90;;;;;;6179518;23;20012;-73
2022/09/27 03:13:33;;;;;;;4.27;1.00;;;;;;;;;;6182259;23;20076;-73
2022/09/27 03:15:59;;;;;;;7.30;0.80;;;9.00;99.90;;;;;;6181650;23;20001;-73
2022/09/27 03:18:25;;;;;;;4.83;0.60;;;9.00;99.90;;;;;;6182293;23;20068;-73
2022/09/27 03:20:52;;;;;;;5.37;0.43;;;9.00;99.90;;;;;;6182053;23;20001;-73
2022/09/27 03:23:19;;;;;;;4.80;1.07;;;9.10;99.90;;;;;;6182542;23;20000;-73
2022/09/27 03:25:45;;;;;;;3.70;0.53;;;9.00;99.90;;;;;;6181910;23;20001;-73
2022/09/27 03:28:11;;;;;;;8.33;0.93;;;9.10;99.90;;;;;;6182070;23;20094;-73
2022/09/27 03:30:37;;;;;;;9.00;1.37;;;9.00;99.90;;;;;;6151654;23;20014;-73
2022/09/27 03:33:03;;;;;;;3.73;0.93;;;9.10;99.90;;;;;;6152208;23;20017;-73
2022/09/27 03:35:29;;;;;;;8.07;0.90;;;9.10;99.90;;;;;;6152413;23;20108;-73
2022/09/27 03:37:54;;;;;;;5.13;1.03;;;9.10;99.90;;;;;;6151733;23;20037;-74
2022/09/27 03:40:20;;;;;;;8.20;0.80;;;9.10;99.90;;;;;;6152660;23;20072;-73
2022/09/27 03:42:45;;;;;;;4.77;0.50;;;9.10;99.90;;;;;;6152118;23;20053;-73
2022/09/27 03:45:12;;;;;;;6.83;0.50;;;9.10;99.90;;;;;;6125363;23;20020;-74
2022/09/27 03:47:41;;;;;;;6.60;0.97;;;9.00;99.90;;;;;;6151830;23;20015;-73
2022/09/27 03:50:07;;;;;;;5.10;0.77;;;9.00;99.90;;;;;;6152125;23;19998;-74
2022/09/27 03:52:34;;;;;;;4.87;0.60;;;9.00;99.90;;;;;;6152306;23;20367;-74
2022/09/27 03:55:00;;;;;;;4.53;0.70;;;8.90;99.90;;;;;;6151733;23;20490;-73
2022/09/27 03:57:25;;;;;;;11.57;1.00;;;8.90;99.90;;;;;;6152117;23;20033;-73
2022/09/27 03:59:51;;;;;;;6.20;1.03;;;8.90;99.90;;;;;;6151191;23;20383;-73
2022/09/27 04:02:17;;;;;;;9.03;1.40;;;8.90;99.90;;;;;;6152263;23;20009;-74
2022/09/27 04:04:43;;;;;;;12.47;1.63;;;8.90;99.90;;;;;;6151502;23;20005;-75
2022/09/27 04:07:08;;;;;;;6.00;0.93;;;8.90;99.90;;;;;;6151777;23;20016;-73
2022/09/27 04:09:35;;;;;;;5.30;1.10;;;9.00;99.90;;;;;;6151991;23;19998;-73
2022/09/27 04:12:01;;;;;;;5.00;1.50;;;9.00;99.90;;;;;;6151677;23;20029;-73
2022/09/27 04:14:27;;;;;;;4.37;1.33;;;9.00;99.90;;;;;;6151595;23;19997;-72
2022/09/27 04:16:52;;;;;;;16.03;1.30;;;9.00;99.90;;;;;;6151397;23;20005;-73
2022/09/27 04:19:18;;;;;;;6.87;1.03;;;9.20;99.90;;;;;;6152124;23;20005;-72
2022/09/27 04:21:44;;;;;;;11.37;1.43;;;9.20;99.90;;;;;;6151448;23;20060;-74
2022/09/27 04:24:10;;;;;;;8.87;1.20;;;9.20;99.90;;;;;;6151704;23;20052;-74
2022/09/27 04:26:36;;;;;;;7.27;1.50;;;9.30;99.90;;;;;;6151432;23;20001;-74
2022/09/27 04:29:02;;;;;;;6.43;1.20;;;9.30;99.90;;;;;;6161559;23;20040;-73
2022/09/27 04:31:28;;;;;;;9.37;1.20;;;9.40;99.90;;;;;;6181657;23;20423;-74
2022/09/27 04:33:54;;;;;;;6.77;1.20;;;9.40;99.90;;;;;;6181428;23;20009;-74
2022/09/27 04:36:27;;;;;;;5.73;1.20;;;9.40;99.90;;;;;;6180175;23;20005;-74
2022/09/27 04:38:55;;;;;;;10.15;1.52;;;9.40;99.90;;;;;;6181277;23;20070;-73
2022/09/27 04:41:22;;;;;;;7.90;1.30;;;9.40;99.90;;;;;;6181154;23;20312;-73
2022/09/27 04:43:48;;;;;;;6.47;1.60;;;;;;;;;;6180771;23;19997;-73
2022/09/27 04:46:14;;;;;;;11.27;1.53;;;9.30;99.90;;;;;;6181411;23;20011;-73
2022/09/27 04:48:40;;;;;;;10.27;2.00;;;9.30;99.90;;;;;;6181200;23;20033;-73
2022/09/27 04:51:06;;;;;;;5.93;0.87;;;9.00;99.90;;;;;;6183331;23;20009;-73
2022/09/27 04:53:31;;;;;;;5.37;1.23;;;9.20;99.90;;;;;;6183413;23;20055;-73
2022/09/27 04:55:57;;;;;;;13.20;1.87;;;9.10;99.90;;;;;;6183131;23;20013;-73
2022/09/27 04:58:24;;;;;;;7.93;1.83;;;9.10;99.90;;;;;;6182779;23;20005;-73
2022/09/27 05:00:54;;;;;;;12.73;1.40;;;9.10;99.90;;;;;;6183526;23;20384;-73
2022/09/27 05:03:21;;;;;;;8.37;1.40;;;9.10;99.90;;;;;;6183618;23;20001;-73
2022/09/27 05:05:46;;;;;;;10.07;1.30;;;9.30;99.90;;;;;;6183403;23;20005;-73
2022/09/27 05:08:12;;;;;;;6.17;1.10;;;9.20;99.90;;;;;;6183395;23;20100;-73
2022/09/27 05:10:38;;;;;;;1.93;0.97;;;9.10;99.90;;;;;;6182894;23;20044;-73
2022/09/27 05:13:03;;;;;;;9.77;1.87;;;9.20;99.90;;;;;;6182577;23;20008;-73
2022/09/27 05:15:29;;;;;;;4.73;0.93;;;9.10;99.90;;;;;;6182182;23;20004;-73
2022/09/27 05:17:55;;;;;;;8.97;1.13;;;9.10;99.90;;;;;;6183808;23;20322;-73
2022/09/27 05:20:21;;;;;;;7.17;1.20;;;10.20;99.90;;;;;;6183684;23;20005;-72
2022/09/27 05:22:46;;;;;;;6.37;0.80;;;9.10;99.90;;;;;;6183700;23;20008;-73
2022/09/27 05:25:12;;;;;;;2.70;0.60;;;9.00;99.90;;;;;;6183398;23;20005;-75
2022/09/27 05:27:38;;;;;;;3.90;0.60;;;9.10;99.90;;;;;;6182746;23;20029;-73
2022/09/27 05:30:07;;;;;;;3.40;0.50;;;9.10;99.90;;;;;;6183452;23;20025;-73
2022/09/27 05:32:33;;;;;;;2.67;0.50;;;9.00;99.90;;;;;;6182049;23;20012;-74
2022/09/27 05:34:59;;;;;;;4.53;0.73;;;9.00;99.90;;;;;;6183298;23;20312;-74
2022/09/27 05:37:24;;;;;;;7.97;0.93;;;8.90;99.90;;;;;;6183710;23;20031;-73
2022/09/27 05:39:50;;;;;;;5.97;1.07;;;8.90;99.90;;;;;;6183318;23;20005;-73
2022/09/27 05:42:16;;;;;;;6.17;0.93;;;8.90;99.90;;;;;;6183309;23;20423;-74
2022/09/27 05:44:44;;;;;;;4.93;1.17;;;8.90;99.90;;;;;;6182790;23;19997;-74
2022/09/27 05:47:10;;;;;;;5.07;0.80;;;8.80;99.90;;;;;;6183322;23;20009;-74
2022/09/27 05:49:36;;;;;;;5.03;1.43;;;8.80;99.90;;;;;;6183475;23;20008;-74
2022/09/27 05:52:01;;;;;;;4.23;0.90;;;8.90;99.90;;;;;;6183285;23;20008;-74
2022/09/27 05:54:28;;;;;;;3.83;0.70;;;8.80;99.90;;;;;;6183107;23;19997;-74
2022/09/27 05:56:58;;;;;;;4.03;0.80;;;8.90;99.90;;;;;;6182620;23;20008;-73
2022/09/27 05:59:26;;;;;;;5.40;1.30;;;8.80;99.90;;;;;;6183422;23;19997;-74
2022/09/27 06:01:53;;;;;;;6.77;0.90;;;8.90;99.90;;;;;;6182708;23;20081;-74
2022/09/27 06:04:19;;;;;;;7.80;1.07;;;8.90;99.90;;;;;;6183513;23;20056;-74
2022/09/27 06:06:45;;;;;;;4.03;0.70;;;8.90;99.90;;;;;;6183021;23;20005;-73
2022/09/27 06:09:12;;;;;;;3.97;1.00;;;8.90;99.90;;;;;;6183220;23;20051;-74
2022/09/27 06:11:37;;;;;;;6.20;0.90;;;9.00;99.90;;;;;;6182409;23;20052;-74
2022/09/27 06:14:03;;;;;;;3.57;0.90;;;9.00;99.90;;;;;;6183184;23;20008;-74
2022/09/27 06:16:29;;;;;;;2.77;0.70;;;9.10;99.90;;;;;;6181497;23;20017;-74
2022/09/27 06:18:55;;;;;;;3.73;0.70;;;9.30;99.90;;;;;;6182890;23;20001;-75
2022/09/27 06:21:21;;;;;;;5.03;0.80;;;9.20;99.90;;;;;;6183288;23;20001;-74
2022/09/27 06:23:47;;;;;;;4.00;0.77;;;9.30;99.90;;;;;;6183010;23;20484;-74
2022/09/27 06:26:12;;;;;;;3.43;0.67;;;9.30;99.90;;;;;;6182341;23;20028;-75
2022/09/27 06:28:38;;;;;;;6.00;1.07;;;9.30;99.90;;;;;;6182604;23;20036;-74
2022/09/27 06:31:07;;;;;;;4.53;0.83;;;9.20;99.90;;;;;;6182850;23;20011;-74
2022/09/27 06:33:34;;;;;;;4.43;0.70;;;9.30;99.90;;;;;;6181298;23;20312;-74
2022/09/27 06:36:04;;;;;;;2.33;0.63;;;9.30;99.90;;;;;;6182701;23;20001;-74
2022/09/27 06:38:30;;;;;;;2.07;0.80;;;9.30;99.90;;;;;;6182612;23;20001;-74
2022/09/27 06:40:59;;;;;;;5.30;0.87;;;9.30;99.90;;;;;;6182805;23;20041;-75
2022/09/27 06:43:25;;;;;;;3.08;1.00;;;9.70;99.90;;;;;;6182887;23;20012;-75
2022/09/27 06:45:50;;;;;;;7.67;0.80;;;9.30;99.90;;;;;;6182594;23;20005;-75
2022/09/27 06:48:16;;;;;;;2.10;1.23;;;9.30;99.90;;;;;;6182901;23;20339;-75
2022/09/27 06:50:43;;;;;;;3.30;0.80;;;9.40;99.90;;;;;;6182342;23;20004;-75
2022/09/27 06:53:11;;;;;;;7.33;1.20;;;9.40;99.90;;;;;;6181906;23;20309;-75
2022/09/27 06:55:38;;;;;;;3.57;0.80;;;9.60;99.90;;;;;;6182340;23;20081;-74
2022/09/27 07:00:52;;;;;;;4.23;0.70;;;9.70;99.90;;;;;;6178187;23;20012;-74
2022/09/27 07:03:20;;;;;;;4.47;0.90;;;9.90;99.90;;;;;;6179222;23;20453;-74
2022/09/27 07:05:57;;;;;;;5.40;0.80;;;10.20;99.90;;;;;;6178759;23;20174;-74
2022/09/27 07:08:25;;;;;;;4.05;0.63;;;10.30;99.90;;;;;;6181117;23;20032;-74
2022/09/27 07:10:51;;;;;;;1.75;0.52;;;10.40;99.90;;;;;;6179538;23;20001;-74
2022/09/27 07:13:17;;;;;;;4.97;1.10;;;10.40;99.90;;;;;;6180465;23;19997;-74
2022/09/27 07:15:43;;;;;;;1.67;0.70;;;10.40;99.90;;;;;;6179414;23;20009;-74
2022/09/27 07:18:08;;;;;;;3.90;0.80;;;10.50;99.90;;;;;;6181198;23;20001;-74
2022/09/27 07:20:37;;;;;;;3.72;1.27;;;10.40;99.90;;;;;;6178938;23;20032;-74
2022/09/27 07:23:09;;;;;;;4.25;1.10;;;10.30;99.90;;;;;;6179258;23;20035;-74
2022/09/27 07:25:35;;;;;;;3.73;1.37;;;10.30;99.90;;;;;;6181123;23;20031;-74
2022/09/27 07:28:05;;;;;;;4.40;1.33;;;10.30;99.90;;;;;;6181140;23;20084;-75
2022/09/27 07:30:32;;;;;;;1.97;1.03;;;10.30;99.90;;;;;;6180285;23;20041;-74
2022/09/27 07:33:03;;;;;;;2.00;0.90;;;10.40;99.90;;;;;;6180889;23;20107;-74
2022/09/27 07:35:31;;;;;;;4.27;1.23;;;10.30;99.90;;;;;;6178808;23;20116;-74
2022/09/27 07:37:57;;;;;;;5.03;1.33;;;10.50;99.90;;;;;;6180509;23;20005;-74
2022/09/27 07:40:24;;;;;;;2.50;0.80;;;10.50;99.90;;;;;;6180655;23;20012;-74
2022/09/27 07:42:57;;;;;;;3.93;0.87;;;10.60;99.90;;;;;;6179208;23;20028;-74
2022/09/27 07:45:24;;;;;;;3.10;1.00;;;10.70;99.90;;;;;;6180090;23;20438;-75
2022/09/27 07:47:49;;;;;;;6.05;1.30;;;11.50;99.90;;;;;;6180949;23;20017;-74
2022/09/27 07:50:15;;;;;;;4.00;0.98;;;10.90;99.90;;;;;;6181698;23;20005;-75
2022/09/27 07:52:43;;;;;;;4.55;1.20;;;11.00;99.90;;;;;;6180039;23;20453;-75
2022/09/27 07:55:10;;;;;;;3.47;0.80;;;11.00;99.90;;;;;;6181035;23;20004;-75
2022/09/27 07:57:36;;;;;;;2.00;0.63;;;11.00;99.90;;;;;;6180039;23;20423;-75
2022/09/27 08:00:07;;;;;;;2.78;0.52;;;10.90;99.90;;;;;;6181384;23;20028;-75
2022/09/27 08:02:33;;;;;;;3.33;0.60;;;10.80;99.90;;;;;;6180437;23;20012;-74
2022/09/27 08:04:59;;;;;;;2.83;0.82;;;10.80;99.90;;;;;;6180542;23;20001;-75
2022/09/27 08:07:25;;;;;;;4.65;0.80;;;10.80;99.90;;;;;;6177915;23;20067;-75
2022/09/27 08:09:51;;;;;;;5.67;0.80;;;10.80;99.90;;;;;;6180988;23;20001;-74
2022/09/27 08:12:18;;;;;;;6.00;1.20;;;10.80;99.90;;;;;;6179525;23;20007;-74
2022/09/27 08:14:43;;;;;;;3.30;1.10;;;11.10;99.90;;;;;;6179469;23;20005;-74
2022/09/27 08:17:10;;;;;;;4.05;1.48;;;11.20;99.90;;;;;;6178391;23;20329;-75
2022/09/27 08:19:35;;;;;;;4.10;1.13;;;11.20;99.90;;;;;;6178190;23;20679;-74
2022/09/27 08:22:01;;;;;;;4.43;1.15;;;11.40;99.90;;;;;;6179417;23;20007;-75
2022/09/27 08:24:27;;;;;;;5.25;1.67;;;11.40;99.90;;;;;;6180804;23;20084;-74
2022/09/27 08:26:52;;;;;;;5.20;1.70;;;11.50;99.90;;;;;;6180256;23;20051;-75
2022/09/27 08:29:18;;;;;;;4.07;1.63;;;10.00;99.90;;;;;;6179918;23;20022;-75
2022/09/27 08:31:43;;;;;;;3.03;1.77;;;11.50;99.90;;;;;;6179512;23;20020;-74
2022/09/27 08:34:09;;;;;;;4.03;1.83;;;11.60;99.90;;;;;;6181304;23;20075;-74
2022/09/27 08:36:36;;;;;;;1.88;1.50;;;11.60;99.90;;;;;;6180657;23;20261;-74
2022/09/27 08:39:02;;;;;;;2.17;1.65;;;11.60;99.90;;;;;;6178675;23;20015;-74
2022/09/27 08:41:38;;;;;;;5.70;1.85;;;11.50;99.90;;;;;;6178850;23;20085;-74
2022/09/27 08:44:26;;;;;;;7.38;2.25;;;11.50;99.90;;;;;;6181267;23;20401;-74
2022/09/27 08:46:57;;;;;;;3.75;2.20;;;11.40;99.90;;;;;;6180845;23;20002;-74
2022/09/27 08:49:30;;;;;;;4.93;2.33;;;11.40;99.90;;;;;;6180632;23;20399;-75
2022/09/27 08:51:58;;;;;;;5.90;2.35;;;11.60;99.90;;;;;;6178417;23;20380;-74
2022/09/27 08:54:34;;;;;;;4.63;3.05;;;11.60;99.90;;;;;;6179861;23;20005;-74
2022/09/27 08:57:04;;;;;;;3.83;3.17;;;11.60;99.90;;;;;;6181003;23;20009;-74
2022/09/27 08:59:42;;;;;;;5.80;3.35;;;11.80;99.90;;;;;;6181167;23;20008;-74
2022/09/27 09:02:18;;;;;;;3.47;3.17;;;11.90;99.90;;;;;;6177429;23;20477;-74
2022/09/27 09:04:45;;;;;;;3.15;2.85;;;11.90;99.90;;;;;;6179821;23;20335;-74
2022/09/27 09:07:28;;;;;;;3.20;2.80;;;12.00;99.90;;;;;;6181044;23;20148;-74
2022/09/27 09:12:45;;;;;;;2.35;2.15;;;12.00;99.90;;;;;;6180385;23;20005;-75
2022/09/27 09:13:20;;;;;;;1.65;1.30;;;12.00;99.90;;;;;;6178559;23;20045;-74
2022/09/27 09:16:14;;;;;;;1.40;0.80;;;12.10;99.90;;;;;;6178888;23;20445;-75
2022/09/27 09:19:06;;;;;;;1.23;1.00;;;12.00;99.90;;;;;;6180267;23;20009;-74
2022/09/27 09:21:32;;;;;;;3.95;1.70;;;12.10;99.90;;;;;;6179319;23;20012;-74
2022/09/27 09:24:35;;;;;;;4.13;2.58;;;12.10;99.90;;;;;;6178724;23;20005;-74
2022/09/27 09:27:28;;;;;;;4.35;2.63;;;12.10;99.90;;;;;;6180260;23;20009;-73
2022/09/27 09:30:15;;;;;;;4.68;2.65;;;12.10;99.90;;;;;;6180631;23;20031;-73
2022/09/27 09:33:15;;;;;;;3.38;3.08;;;12.10;99.90;;;;;;6177587;23;20009;-73
2022/09/27 09:35:51;;;;;;;4.00;2.85;;;11.90;99.90;;;;;;6180252;23;20005;-74
2022/09/27 09:38:23;;;;;;;4.13;3.40;;;12.10;99.90;;;;;;6181498;23;20005;-74
2022/09/27 09:41:06;;;;;;;5.05;3.13;;;12.20;99.90;;;;;;6181387;23;19997;-74
2022/09/27 09:43:40;;;;;;;5.97;3.33;;;12.10;99.90;;;;;;6182433;23;20008;-73
2022/09/27 09:46:19;;;;;;;4.88;2.65;;;11.90;99.90;;;;;;6180187;23;20006;-74
2022/09/27 09:49:06;;;;;;;3.42;1.27;;;11.80;99.90;;;;;;6182371;23;20013;-74
2022/09/27 09:51:40;;;;;;;5.18;2.20;;;12.30;99.90;;;;;;6180657;23;20008;-74
2022/09/27 09:54:12;;;;;;;2.58;1.13;;;11.50;99.90;;;;;;6181433;23;20005;-74
2022/09/27 09:56:52;;;;;;;6.70;1.00;;;11.50;99.90;;;;;;6180480;23;20394;-73
2022/09/27 09:59:37;;;;;;;5.75;1.42;;;11.50;99.90;;;;;;6182946;23;20005;-76
2022/09/27 10:02:24;;;;;;;3.67;0.90;;;11.50;99.90;;;;;;6179737;23;20483;-75
2022/09/27 10:04:49;;;;;;;2.97;0.70;;;11.50;99.90;;;;;;6180960;23;20013;-76
2022/09/27 10:07:21;;;;;;;2.78;0.57;;;11.60;99.90;;;;;;6179611;23;20036;-74
2022/09/27 10:09:46;;;;;;;2.85;1.02;;;11.70;99.90;;;;;;6182056;23;20001;-75
2022/09/27 10:12:12;;;;;;;2.50;0.60;;;11.90;99.90;;;;;;6180895;23;20015;-74
2022/09/27 10:14:39;;;;;;;2.50;0.40;;;11.90;99.90;;;;;;6182168;23;19997;-75
2022/09/27 10:17:13;;;;;;;3.63;0.40;;;12.40;99.90;;;;;;6180161;23;20009;-75
2022/09/27 10:19:40;;;;;;;2.65;0.75;;;11.70;99.90;;;;;;6180457;23;20013;-75
2022/09/27 10:22:24;;;;;;;1.05;0.38;;;11.70;99.90;;;;;;6179527;23;20057;-75
2022/09/27 10:25:01;;;;;;;3.13;1.13;;;11.60;99.90;;;;;;6180659;23;20009;-74
2022/09/27 10:27:36;;;;;;;2.70;0.57;;;11.50;99.90;;;;;;6179737;23;20328;-74
2022/09/27 10:30:03;;;;;;;6.30;0.52;;;12.80;99.90;;;;;;6181408;23;20009;-75
2022/09/27 10:32:35;;;;;;;2.72;0.52;;;11.50;99.90;;;;;;6179818;23;20012;-73
2022/09/27 10:35:19;;;;;;;1.60;0.50;;;11.60;99.90;;;;;;6181844;23;20396;-73
2022/09/27 10:37:45;;;;;;;6.85;0.52;;;11.70;99.90;;;;;;6179803;23;20028;-73
2022/09/27 10:40:32;;;;;;;2.08;0.57;;;11.60;99.90;;;;;;6180508;23;20020;-75
2022/09/27 10:42:58;;;;;;;2.30;0.40;;;11.60;99.90;;;;;;6181803;23;20008;-74
2022/09/27 10:45:28;;;;;;;4.65;0.60;;;11.70;99.90;;;;;;6181498;23;20001;-75
2022/09/27 10:47:55;;;;;;;3.55;0.40;;;11.50;99.90;;;;;;6180919;23;20013;-75
2022/09/27 10:50:25;;;;;;;2.20;0.45;;;11.70;99.90;;;;;;6180067;23;20042;-74
2022/09/27 10:53:02;;;;;;;5.25;0.80;;;11.70;99.90;;;;;;6181825;23;20079;-74
2022/09/27 10:55:31;;;;;;;2.38;0.40;;;11.80;99.90;;;;;;6182189;23;20032;-74
2022/09/27 10:57:56;;;;;;;2.28;0.43;;;11.80;99.90;;;;;;6179020;23;20009;-74
2022/09/27 11:00:30;;;;;;;2.88;0.50;;;11.90;99.90;;;;;;6177130;23;20148;-72
2022/09/27 11:02:59;;;;;;;2.13;0.30;;;12.00;99.90;;;;;;6179268;23;20057;-72
2022/09/27 11:05:26;;;;;;;4.80;0.70;;;12.10;99.90;;;;;;6179837;23;20078;-72
2022/09/27 11:07:54;;;;;;;2.67;0.40;;;12.00;99.90;;;;;;6181603;23;20059;-72
2022/09/27 11:10:32;;;;;;;2.00;0.63;;;12.00;99.90;;;;;;6181615;23;20060;-74
2022/09/27 11:13:11;;;;;;;1.85;0.50;;;12.10;99.90;;;;;;6180028;23;20004;-75
2022/09/27 11:15:59;;;;;;;2.05;0.60;;;12.10;99.90;;;;;;6179742;23;20029;-72
2022/09/27 11:18:43;;;;;;;1.20;0.30;;;12.10;99.90;;;;;;6181755;23;20427;-73
2022/09/27 11:21:41;;;;;;;1.20;0.50;;;12.20;99.90;;;;;;6181010;23;20005;-72
2022/09/27 11:24:21;;;;;;;3.97;0.40;;;12.10;99.90;;;;;;6180602;23;20423;-73
2022/09/27 11:27:05;;;;;;;0.63;0.30;;;12.20;99.90;;;;;;6181503;23;20438;-72
2022/09/27 11:29:44;;;;;;;1.02;0.60;;;12.30;99.90;;;;;;6179598;23;20446;-73
2022/09/27 11:32:15;;;;;;;1.98;0.60;;;12.40;99.90;;;;;;6180759;23;20817;-73
2022/09/27 11:34:53;;;;;;;1.88;0.40;;;12.40;99.90;;;;;;6180177;23;20028;-73
2022/09/27 11:37:45;;;;;;;2.03;0.30;;;12.40;99.90;;;;;;6182086;23;19997;-73
2022/09/27 11:40:20;;;;;;;0.60;0.32;;;12.40;99.90;;;;;;6181696;23;20013;-73
2022/09/27 11:43:01;;;;;;;1.50;0.28;;;12.50;99.90;;;;;;6181711;23;20048;-72
2022/09/27 11:45:43;;;;;;;1.40;0.30;;;12.50;99.90;;;;;;6180623;23;19997;-73
2022/09/27 11:48:34;;;;;;;5.50;0.43;;;12.60;99.90;;;;;;6181279;23;20055;-73
2022/09/27 11:51:17;;;;;;;3.55;0.68;;;12.70;99.90;;;;;;6180330;23;20350;-73
2022/09/27 11:54:11;;;;;;;6.13;0.50;;;12.80;99.90;;;;;;6181356;23;20004;-73
2022/09/27 11:56:40;;;;;;;;;;;12.70;99.90;;;;;;6179557;23;20001;-73
2022/09/27 11:59:27;;;;;;;1.88;0.40;;;12.70;99.90;;;;;;6180940;23;19901;-72
2022/09/27 12:01:58;;;;;;;8.30;0.70;;;12.60;99.90;;;;;;6179972;23;20083;-73
2022/09/27 12:04:50;;;;;;;1.48;0.30;;;12.70;99.90;;;;;;6181229;23;20024;-72
2022/09/27 12:07:47;;;;;;;4.18;0.50;;;12.60;99.90;;;;;;6179958;23;20064;-73
2022/09/27 12:10:16;;;;;;;1.90;0.70;;;12.60;99.90;;;;;;6181003;23;20007;-73
2022/09/27 12:12:46;;;;;;;2.25;0.52;;;12.50;99.90;;;;;;6179539;23;20001;-75
2022/09/27 12:15:22;;;;;;;1.73;0.20;;;12.20;99.90;;;;;;6181386;23;20001;-73
2022/09/27 12:17:51;;;;;;;1.00;0.90;;;12.60;99.90;;;;;;6177892;23;20439;-73
2022/09/27 12:20:30;;;;;;;0.65;0.20;;;12.90;99.90;;;;;;6181745;23;20475;-73
2022/09/27 12:23:02;;;;;;;0.68;0.30;;;12.90;99.90;;;;;;6181330;23;20001;-74
2022/09/27 12:25:30;;;;;;;3.00;0.38;;;13.00;99.90;;;;;;6180935;23;20004;-73
2022/09/27 12:28:19;;;;;;;0.68;0.20;;;13.10;99.90;;;;;;6178592;23;20017;-74
2022/09/27 12:30:53;;;;;;;1.23;0.40;;;13.10;99.90;;;;;;6179516;23;20024;-73
2022/09/27 12:33:34;;;;;;;0.70;0.40;;;13.10;99.90;;;;;;6181253;23;20151;-73
2022/09/27 12:36:06;;;;;;;1.27;0.30;;;13.90;99.90;;;;;;6180437;23;20067;-73
2022/09/27 12:39:12;;;;;;;0.85;0.30;;;12.80;99.90;;;;;;6178370;23;20012;-73
2022/09/27 12:41:41;;;;;;;1.13;0.30;;;12.70;99.90;;;;;;6179049;23;20009;-73
2022/09/27 12:44:10;;;;;;;1.77;0.50;;;12.60;99.90;;;;;;6181366;23;20080;-73
2022/09/27 12:46:38;;;;;;;2.95;0.50;;;12.60;99.90;;;;;;6180902;23;20434;-73
2022/09/27 12:49:04;;;;;;;1.02;0.52;;;12.70;99.90;;;;;;6178201;23;20447;-73
2022/09/27 12:51:59;;;;;;;9.45;0.70;;;12.60;99.90;;;;;;6179138;23;20001;-73
2022/09/27 12:54:42;;;;;;;2.70;0.40;;;12.60;99.90;;;;;;6180521;23;20004;-73
2022/09/27 12:57:36;;;;;;;0.73;0.38;;;12.50;99.90;;;;;;6180108;23;20027;-73
2022/09/27 13:00:09;;;;;;;0.95;0.30;;;12.50;99.90;;;;;;6181377;23;20001;-73
2022/09/27 13:02:56;;;;;;;1.75;0.28;;;12.40;99.90;;;;;;6181649;23;20015;-73
2022/09/27 13:05:31;;;;;;;0.60;0.30;;;12.40;99.90;;;;;;6181135;23;20083;-73
2022/09/27 13:08:02;;;;;;;0.85;0.22;;;12.10;99.90;;;;;;6180939;23;20083;-73
2022/09/27 13:11:10;;;;;;;0.50;0.30;;;12.10;99.90;;;;;;6178153;23;20036;-73
2022/09/27 13:13:38;;;;;;;1.60;0.30;;;12.10;99.90;;;;;;6039229;23;20085;-72
2022/09/27 13:16:06;;;;;;;0.73;0.32;;;12.00;99.90;;;;;;6062373;23;20314;-71
2022/09/27 13:18:34;;;;;;;1.45;0.93;;;11.90;99.90;;;;;;6063187;23;20062;-74
2022/09/27 13:21:02;;;;;;;0.68;0.38;;;11.80;99.90;;;;;;6062067;23;20085;-73